Horseshoe Lake, Washington
Current Conditions -  °F | °C
As of 1:35 PM on Wednesday 17 Dec 2014 (Local Time) from KPWT Reporting Station
Overcast Overcast  
Wind Chill: 46°   Ceiling: 4800
Heat Index: 46°   Visibility: 10mi
Dew Point: 45°   Wind: 3mph
Humidity: 93%   Direction: 210°SSW
Pressure: 29.85"   Gusts: NA
Location:  47.5378°N, 122.589°W
Report Text: KPWT 172135Z AUTO 21003KT 10SM OVC048 08/07 A2985 RMK AO1
Loading
Personal Weather Stations






























Interactive Weather Map New forecast layout! Learn more

10-Day Weather Forecast

Advertisements
Track Severe Weather on mobile